Time;durP1;ratioP1;P1;durP2;ratioP2;P2;SDS_P1;SDS_P2;PMS_P1;PMS_P2;Temp;Humidity;BMP_temperature;BMP_pressure;BME280_temperature;BME280_humidity;BME280_pressure;Samples;Min_cycle;Max_cycle;Signal;HPM_P1;HPM_P2
2023/03/02 00:01:47;;;;;;;9.40;5.60;;;0.90;1.00;;;;;;5001285;28;20220;-68
2023/03/02 00:04:29;;;;;;;9.03;5.43;;;0.80;1.00;;;;;;4998305;28;20716;-67
2023/03/02 00:07:00;;;;;;;9.67;5.80;;;0.60;1.00;;;;;;4984747;28;20197;-67
2023/03/02 00:09:29;;;;;;;8.47;5.63;;;0.60;1.00;;;;;;5001535;28;20229;-65
2023/03/02 00:11:56;;;;;;;7.13;4.60;;;0.40;1.00;;;;;;5001477;28;20228;-65
2023/03/02 00:14:23;;;;;;;9.43;5.60;;;0.40;1.00;;;;;;5018364;28;20209;-65
2023/03/02 00:16:50;;;;;;;10.47;5.90;;;0.30;1.00;;;;;;5001697;28;20284;-65
2023/03/02 00:19:17;;;;;;;11.30;6.37;;;0.20;1.00;;;;;;4983796;28;20251;-66
2023/03/02 00:21:44;;;;;;;13.73;7.70;;;0.10;1.00;;;;;;4977314;28;20263;-64
2023/03/02 00:24:13;;;;;;;13.13;7.07;;;0.00;1.00;;;;;;5001610;28;20208;-67
2023/03/02 00:26:41;;;;;;;10.10;6.47;;;-0.10;1.00;;;;;;5019418;28;20354;-68
2023/03/02 00:29:08;;;;;;;10.47;6.07;;;-0.20;1.00;;;;;;5017451;28;20217;-67
2023/03/02 00:31:37;;;;;;;13.37;7.00;;;-0.40;1.00;;;;;;4992413;28;20672;-65
2023/03/02 00:34:04;;;;;;;12.03;7.00;;;-0.50;1.00;;;;;;5001445;28;20581;-65
2023/03/02 00:36:31;;;;;;;13.30;6.70;;;-0.60;1.00;;;;;;5000795;28;20660;-65
2023/03/02 00:38:58;;;;;;;10.97;6.27;;;-0.60;1.00;;;;;;5000143;28;20639;-65
2023/03/02 00:41:26;;;;;;;9.43;6.07;;;-0.70;1.00;;;;;;5018378;28;20696;-64
2023/03/02 00:43:53;;;;;;;14.20;6.67;;;-0.70;1.00;;;;;;4984491;28;20208;-64
2023/03/02 00:46:22;;;;;;;13.43;6.50;;;-0.70;1.00;;;;;;5016510;28;20620;-64
2023/03/02 00:48:50;;;;;;;10.10;6.83;;;-0.80;1.00;;;;;;5000155;28;20717;-64
2023/03/02 00:51:18;;;;;;;12.87;6.50;;;-0.80;1.00;;;;;;5000546;28;20246;-64
2023/03/02 00:53:45;;;;;;;12.03;6.73;;;-0.80;1.00;;;;;;5017021;28;20215;-65
2023/03/02 00:56:13;;;;;;;11.63;6.97;;;-0.80;1.00;;;;;;4999894;28;20204;-65
2023/03/02 00:58:45;;;;;;;12.10;7.20;;;-1.00;1.00;;;;;;4984502;28;20807;-65
2023/03/02 01:01:13;;;;;;;11.67;6.40;;;-1.00;1.00;;;;;;5000120;28;20210;-64
2023/03/02 01:03:45;;;;;;;11.37;6.83;;;-1.00;1.00;;;;;;4999173;28;20241;-64
2023/03/02 01:06:18;;;;;;;16.20;12.13;;;-1.00;1.00;;;;;;5013474;28;20246;-66
2023/03/02 01:08:45;;;;;;;15.33;9.20;;;-1.10;1.00;;;;;;4995494;28;20200;-65
2023/03/02 01:11:18;;;;;;;15.73;9.87;;;-1.10;1.00;;;;;;5014175;28;20203;-65
2023/03/02 01:13:45;;;;;;;11.40;7.53;;;-1.10;1.00;;;;;;4990009;28;20956;-66
2023/03/02 01:16:13;;;;;;;11.33;7.27;;;-1.10;1.00;;;;;;4998588;28;20199;-66
2023/03/02 01:18:40;;;;;;;17.63;9.53;;;-1.20;1.00;;;;;;5017628;28;20201;-65
2023/03/02 01:21:12;;;;;;;17.87;10.07;;;-1.20;1.00;;;;;;5000087;28;20260;-65
2023/03/02 01:23:39;;;;;;;13.00;7.73;;;-1.20;1.00;;;;;;4999858;28;20208;-65
2023/03/02 01:26:07;;;;;;;18.00;8.87;;;-1.20;1.00;;;;;;4983598;28;20211;-65
2023/03/02 01:28:34;;;;;;;15.47;7.87;;;-1.20;1.00;;;;;;4984620;28;20684;-65
2023/03/02 01:31:03;;;;;;;11.27;7.10;;;-1.30;1.00;;;;;;4973865;28;20281;-65
2023/03/02 01:33:31;;;;;;;16.93;8.67;;;-1.30;1.00;;;;;;4998081;28;20204;-65
2023/03/02 01:35:58;;;;;;;22.57;10.60;;;-1.20;1.00;;;;;;4973769;28;20200;-65
2023/03/02 01:38:26;;;;;;;26.23;12.87;;;-1.10;1.00;;;;;;5016811;28;20203;-63
2023/03/02 01:40:53;;;;;;;17.10;9.20;;;-1.10;1.00;;;;;;5003242;28;20209;-65
2023/03/02 01:43:20;;;;;;;10.70;6.50;;;-1.20;1.00;;;;;;4984443;28;20204;-65
2023/03/02 01:45:55;;;;;;;15.87;8.57;;;-1.20;1.00;;;;;;5015061;28;20603;-65
2023/03/02 01:48:48;;;;;;;21.37;9.77;;;-1.30;1.00;;;;;;5000448;28;20695;-63
2023/03/02 01:51:24;;;;;;;18.93;8.77;;;-1.20;1.00;;;;;;4982663;28;20641;-65
2023/03/02 01:53:57;;;;;;;36.17;14.33;;;-1.20;1.00;;;;;;4999188;28;20207;-65
2023/03/02 01:56:29;;;;;;;40.57;15.30;;;-1.00;1.00;;;;;;5011907;28;20200;-67
2023/03/02 01:59:00;;;;;;;41.37;17.00;;;-0.90;1.00;;;;;;4997234;28;20733;-66
2023/03/02 02:01:33;;;;;;;39.33;16.40;;;-0.80;1.00;;;;;;5015499;28;20197;-61
2023/03/02 02:04:01;;;;;;;48.17;17.23;;;-0.70;1.00;;;;;;5046038;23;20245;-77
2023/03/02 02:06:47;;;;;;;54.00;17.67;;;-0.60;1.00;;;;;;4980794;28;20355;-78
2023/03/02 02:09:18;;;;;;;65.17;23.30;;;-0.60;1.00;;;;;;5002918;28;20711;-78
2023/03/02 02:11:45;;;;;;;40.93;17.00;;;-0.50;1.00;;;;;;4994918;28;20234;-75
2023/03/02 02:14:13;;;;;;;23.60;10.73;;;-0.50;1.00;;;;;;4985836;28;20200;-75
2023/03/02 02:16:40;;;;;;;34.47;13.37;;;-0.40;1.00;;;;;;4971087;28;20220;-75
2023/03/02 02:19:48;;;;;;;33.80;14.77;;;-0.40;1.00;;;;;;4986823;28;20218;-75
2023/03/02 02:22:27;;;;;;;26.50;11.47;;;-0.40;1.00;;;;;;4979127;28;20356;-75
2023/03/02 02:24:58;;;;;;;17.27;9.03;;;-0.40;1.00;;;;;;4991946;28;20284;-75
2023/03/02 02:27:32;;;;;;;12.63;6.97;;;-0.40;1.00;;;;;;4991356;28;20228;-75
2023/03/02 02:30:03;;;;;;;13.77;7.07;;;-0.40;1.00;;;;;;5002834;28;20243;-75
2023/03/02 02:32:35;;;;;;;14.47;7.57;;;-0.30;1.00;;;;;;4990760;28;20264;-75
2023/03/02 02:35:17;;;;;;;11.13;6.80;;;-0.20;1.00;;;;;;4984772;28;20297;-75
2023/03/02 02:38:00;;;;;;;9.90;5.57;;;-0.10;1.00;;;;;;4990153;28;20277;-75
2023/03/02 02:40:51;;;;;;;13.23;6.63;;;-0.20;1.00;;;;;;5004984;28;20663;-73
2023/03/02 02:43:24;;;;;;;10.50;5.77;;;-0.10;1.00;;;;;;4997307;28;20210;-72
2023/03/02 02:45:55;;;;;;;13.40;7.13;;;-0.20;1.00;;;;;;4986688;28;20228;-72
2023/03/02 02:48:25;;;;;;;12.13;6.73;;;-0.30;1.00;;;;;;4990515;28;20208;-73
2023/03/02 02:51:00;;;;;;;11.67;6.00;;;-0.30;1.00;;;;;;4982845;28;20240;-73
2023/03/02 02:53:40;;;;;;;8.00;5.37;;;-0.20;1.00;;;;;;4984495;28;20206;-73
2023/03/02 02:56:08;;;;;;;7.10;5.03;;;-0.20;1.00;;;;;;4974585;28;20731;-73
2023/03/02 02:58:47;;;;;;;7.33;5.30;;;-0.20;1.00;;;;;;4973852;28;20234;-73
2023/03/02 03:01:17;;;;;;;7.17;4.93;;;-0.20;1.00;;;;;;4991479;28;20966;-72
2023/03/02 03:03:54;;;;;;;7.43;4.80;;;-0.20;1.00;;;;;;4989314;28;20276;-73
2023/03/02 03:06:26;;;;;;;8.20;5.07;;;-0.10;1.00;;;;;;4966439;28;20209;-73
2023/03/02 03:08:57;;;;;;;7.97;5.50;;;-0.10;1.00;;;;;;4966790;28;20202;-72
2023/03/02 03:11:40;;;;;;;8.87;5.50;;;-0.10;1.00;;;;;;5006731;28;20680;-73
2023/03/02 03:14:25;;;;;;;7.80;4.90;;;0.00;1.00;;;;;;4980513;28;20732;-72
2023/03/02 03:16:53;;;;;;;9.00;4.70;;;0.00;1.00;;;;;;4988715;28;20698;-73
2023/03/02 03:19:25;;;;;;;8.53;4.80;;;0.00;1.00;;;;;;4973664;28;20233;-73
2023/03/02 03:21:56;;;;;;;13.27;5.63;;;0.10;1.00;;;;;;4987733;28;20240;-73
2023/03/02 03:24:27;;;;;;;11.40;5.17;;;0.00;1.00;;;;;;4982505;28;20273;-73
2023/03/02 03:26:54;;;;;;;8.83;4.67;;;0.10;1.00;;;;;;4988942;28;20293;-72
2023/03/02 03:29:28;;;;;;;10.13;5.50;;;0.00;1.00;;;;;;4996825;28;20282;-73
2023/03/02 03:31:59;;;;;;;8.77;5.20;;;0.00;1.00;;;;;;4991167;28;20249;-73
2023/03/02 03:34:28;;;;;;;11.40;6.10;;;0.10;1.00;;;;;;5004934;28;21279;-73
2023/03/02 03:37:00;;;;;;;22.13;9.10;;;0.00;1.00;;;;;;4997565;28;20626;-73
2023/03/02 03:39:31;;;;;;;39.27;13.07;;;-0.10;1.00;;;;;;4981173;28;20205;-73
2023/03/02 03:41:58;;;;;;;22.17;8.30;;;-0.10;1.00;;;;;;4973584;28;20198;-74
2023/03/02 03:44:25;;;;;;;105.27;25.63;;;-0.30;1.00;;;;;;4973021;28;20213;-74
2023/03/02 03:46:52;;;;;;;36.60;11.40;;;-0.40;1.00;;;;;;4989355;28;20252;-74
2023/03/02 03:49:19;;;;;;;48.70;14.37;;;-0.50;1.00;;;;;;4989339;28;20194;-75
2023/03/02 03:51:48;;;;;;;51.17;15.77;;;-0.30;1.00;;;;;;4981999;28;20756;-74
2023/03/02 03:54:16;;;;;;;18.77;9.20;;;-0.20;1.00;;;;;;4972401;28;20229;-74
2023/03/02 03:56:46;;;;;;;11.90;6.20;;;-0.20;1.00;;;;;;4988409;28;20201;-75
2023/03/02 03:59:18;;;;;;;12.47;5.73;;;-0.20;1.00;;;;;;4972100;28;20193;-75
2023/03/02 04:01:59;;;;;;;19.03;8.67;;;-0.10;1.00;;;;;;4997494;28;20201;-74
2023/03/02 04:04:34;;;;;;;10.30;5.90;;;0.00;1.00;;;;;;4964844;28;20247;-75
2023/03/02 04:07:07;;;;;;;22.53;9.47;;;-0.10;1.00;;;;;;4966434;28;20217;-75
2023/03/02 04:09:36;;;;;;;12.80;7.07;;;-0.10;1.00;;;;;;4972547;28;20237;-75
2023/03/02 04:12:07;;;;;;;11.07;5.87;;;-0.20;1.00;;;;;;4989497;28;20202;-75
2023/03/02 04:14:35;;;;;;;16.40;8.30;;;-0.20;1.00;;;;;;4988969;28;20288;-75
2023/03/02 04:17:04;;;;;;;9.77;5.87;;;-0.10;1.00;;;;;;4988882;28;20198;-74
2023/03/02 04:19:34;;;;;;;9.17;6.50;;;-0.20;1.00;;;;;;4980476;28;20206;-74
2023/03/02 04:22:02;;;;;;;12.93;6.30;;;-0.20;1.00;;;;;;4988628;28;20579;-74
2023/03/02 04:24:31;;;;;;;9.70;6.07;;;-0.20;1.00;;;;;;4980164;28;20201;-74
2023/03/02 04:27:01;;;;;;;12.57;6.23;;;-0.20;1.00;;;;;;4989149;28;20202;-75
2023/03/02 04:29:31;;;;;;;18.00;9.03;;;-0.30;1.00;;;;;;4970796;28;20206;-74
2023/03/02 04:31:59;;;;;;;18.47;9.97;;;-0.30;1.00;;;;;;4988895;28;20217;-74
2023/03/02 04:34:28;;;;;;;14.80;7.20;;;-0.30;1.00;;;;;;4987758;28;20653;-75
2023/03/02 04:36:56;;;;;;;10.17;6.40;;;-0.20;1.00;;;;;;4988243;28;20205;-75
2023/03/02 04:39:23;;;;;;;13.27;7.87;;;-0.20;1.00;;;;;;4988528;28;20205;-76
2023/03/02 04:41:52;;;;;;;14.20;6.23;;;-0.30;1.00;;;;;;4988522;28;20547;-75
2023/03/02 04:44:20;;;;;;;10.07;6.00;;;-0.30;1.00;;;;;;4987843;28;20205;-75
2023/03/02 04:46:47;;;;;;;10.17;6.43;;;-0.20;1.00;;;;;;4988044;28;20657;-75
2023/03/02 04:49:16;;;;;;;14.17;6.80;;;-0.20;1.00;;;;;;4981227;28;20217;-75
2023/03/02 04:51:46;;;;;;;10.60;6.00;;;-0.30;1.00;;;;;;4987552;28;20233;-75
2023/03/02 04:54:22;;;;;;;14.57;6.93;;;-0.30;1.00;;;;;;4978817;28;20501;-75
2023/03/02 04:56:51;;;;;;;10.43;6.10;;;-0.30;1.00;;;;;;4988838;28;20584;-75
2023/03/02 04:59:22;;;;;;;10.17;6.03;;;-0.30;1.00;;;;;;4989400;28;20230;-75
2023/03/02 05:01:49;;;;;;;9.93;5.90;;;-0.40;1.00;;;;;;4988788;28;20243;-75
2023/03/02 05:04:17;;;;;;;10.83;6.10;;;-0.40;1.00;;;;;;4985332;28;20791;-75
2023/03/02 05:06:44;;;;;;;7.77;5.90;;;-0.60;1.00;;;;;;4985322;28;20201;-75
2023/03/02 05:09:12;;;;;;;9.13;6.27;;;-0.60;1.00;;;;;;5003646;28;20213;-75
2023/03/02 05:11:39;;;;;;;11.93;6.30;;;-0.70;1.00;;;;;;4987282;28;20224;-74
2023/03/02 05:14:09;;;;;;;10.83;6.77;;;-0.70;1.00;;;;;;4986174;28;20268;-75
2023/03/02 05:16:38;;;;;;;8.80;6.03;;;-0.90;1.00;;;;;;4979362;28;20205;-75
2023/03/02 05:19:08;;;;;;;9.30;6.23;;;-1.10;1.00;;;;;;4997588;28;20210;-74
2023/03/02 05:21:35;;;;;;;11.83;6.77;;;-1.20;1.00;;;;;;4963329;28;20296;-75
2023/03/02 05:24:03;;;;;;;10.30;5.80;;;-1.20;1.00;;;;;;4986925;28;20209;-75
2023/03/02 05:26:30;;;;;;;12.77;6.30;;;-1.30;1.00;;;;;;4986303;28;20206;-75
2023/03/02 05:28:57;;;;;;;11.13;6.53;;;-1.30;1.00;;;;;;4995331;28;20342;-75
2023/03/02 05:31:35;;;;;;;12.13;7.20;;;-1.40;1.00;;;;;;4995440;28;20651;-75
2023/03/02 05:34:08;;;;;;;10.30;6.40;;;-1.30;1.00;;;;;;4989569;28;20212;-75
2023/03/02 05:36:35;;;;;;;9.60;6.17;;;-1.10;1.00;;;;;;4989076;28;20565;-75
2023/03/02 05:39:04;;;;;;;8.33;5.80;;;-0.90;1.00;;;;;;4988331;28;20293;-76
2023/03/02 05:41:31;;;;;;;10.37;6.30;;;-0.90;1.00;;;;;;4979012;28;20288;-75
2023/03/02 05:43:58;;;;;;;10.90;6.60;;;-0.80;1.00;;;;;;4987429;28;20205;-75
2023/03/02 05:46:26;;;;;;;12.63;7.70;;;-0.90;1.00;;;;;;4987722;28;20212;-75
2023/03/02 05:48:53;;;;;;;10.60;6.93;;;-0.90;1.00;;;;;;4990254;28;20201;-75
2023/03/02 05:51:20;;;;;;;14.07;6.53;;;-0.90;1.00;;;;;;4988377;28;20245;-75
2023/03/02 05:53:47;;;;;;;12.27;7.97;;;-1.00;1.00;;;;;;4988420;28;20209;-75
2023/03/02 05:56:14;;;;;;;12.30;7.13;;;-1.10;1.00;;;;;;4973677;28;20240;-75
2023/03/02 05:58:41;;;;;;;10.10;6.57;;;-1.10;1.00;;;;;;4989926;28;20202;-75
2023/03/02 06:01:10;;;;;;;15.07;7.67;;;-1.20;1.00;;;;;;4990014;28;20213;-75
2023/03/02 06:03:42;;;;;;;10.53;6.63;;;-1.20;1.00;;;;;;4982488;28;20240;-75
2023/03/02 06:06:12;;;;;;;10.67;6.47;;;-1.30;1.00;;;;;;4991102;28;20209;-75
2023/03/02 06:08:41;;;;;;;10.87;6.10;;;-1.10;1.00;;;;;;4992263;28;20193;-74
2023/03/02 06:11:08;;;;;;;9.70;7.20;;;-1.10;1.00;;;;;;5006132;28;20807;-75
2023/03/02 06:13:35;;;;;;;11.30;7.27;;;-1.00;1.00;;;;;;4998442;28;20213;-76
2023/03/02 06:16:03;;;;;;;11.67;7.53;;;-0.90;1.00;;;;;;4990600;28;20197;-75
2023/03/02 06:18:30;;;;;;;14.20;7.97;;;-0.90;1.00;;;;;;4986632;28;20249;-75
2023/03/02 06:20:57;;;;;;;13.07;7.67;;;-0.70;1.00;;;;;;4989294;28;20199;-75
2023/03/02 06:23:24;;;;;;;15.33;8.57;;;-0.70;1.00;;;;;;4988983;28;20193;-75
2023/03/02 06:25:51;;;;;;;19.20;11.70;;;-0.60;1.00;;;;;;4990909;28;20190;-76
2023/03/02 06:28:19;;;;;;;12.07;7.93;;;0.00;1.00;;;;;;4990655;28;20260;-76
2023/03/02 06:30:51;;;;;;;10.43;7.00;;;0.70;1.00;;;;;;4989638;28;21028;-76
2023/03/02 06:33:20;;;;;;;13.83;9.60;;;1.10;1.00;;;;;;4997121;28;20217;-76
2023/03/02 06:35:47;;;;;;;14.60;7.73;;;1.10;1.00;;;;;;4998559;28;20576;-76
2023/03/02 06:38:15;;;;;;;12.20;7.47;;;1.60;1.00;;;;;;4991048;28;20202;-75
2023/03/02 06:40:42;;;;;;;12.77;7.33;;;2.60;1.00;;;;;;4990415;28;20201;-75
2023/03/02 06:43:09;;;;;;;14.13;7.57;;;2.80;1.00;;;;;;4991856;28;20205;-77
2023/03/02 06:45:36;;;;;;;9.90;6.87;;;3.00;1.00;;;;;;4989674;28;20301;-77
2023/03/02 06:48:05;;;;;;;9.10;6.73;;;3.20;1.00;;;;;;4989790;28;20211;-77
2023/03/02 06:50:32;;;;;;;13.27;7.27;;;4.10;1.00;;;;;;4989913;28;20564;-75
2023/03/02 06:53:00;;;;;;;12.00;7.33;;;4.90;1.00;;;;;;4988724;28;20199;-77
2023/03/02 06:55:27;;;;;;;11.83;6.17;;;5.40;1.00;;;;;;4988376;28;20206;-74
2023/03/02 06:57:54;;;;;;;9.17;6.43;;;5.80;1.00;;;;;;4989561;28;20206;-75
2023/03/02 07:00:26;;;;;;;12.03;7.37;;;6.60;1.00;;;;;;4985321;28;20190;-75
2023/03/02 07:02:55;;;;;;;10.90;6.50;;;7.30;1.00;;;;;;4990192;28;20200;-75
2023/03/02 07:05:23;;;;;;;9.33;6.63;;;7.80;1.00;;;;;;4988903;28;20288;-75
2023/03/02 07:07:51;;;;;;;9.47;6.40;;;7.90;1.00;;;;;;4998964;28;20221;-75
2023/03/02 07:10:18;;;;;;;10.50;6.23;;;7.00;1.00;;;;;;4991402;28;20263;-75
2023/03/02 07:12:45;;;;;;;10.87;6.93;;;5.70;1.00;;;;;;4987369;28;20224;-75
2023/03/02 07:15:13;;;;;;;9.90;6.93;;;4.50;1.00;;;;;;4987092;28;20260;-75
2023/03/02 07:17:42;;;;;;;11.73;8.63;;;3.90;1.00;;;;;;5002967;28;20186;-75
2023/03/02 07:20:15;;;;;;;13.10;8.40;;;3.60;1.00;;;;;;4991997;28;20198;-77
2023/03/02 07:22:42;;;;;;;13.77;9.30;;;3.20;1.00;;;;;;4988340;28;20271;-75
2023/03/02 07:25:10;;;;;;;10.93;7.20;;;2.80;1.00;;;;;;4989411;28;20190;-75
2023/03/02 07:27:37;;;;;;;23.00;19.97;;;2.60;1.00;;;;;;4989961;28;20661;-75
2023/03/02 07:30:05;;;;;;;12.70;6.93;;;2.50;1.00;;;;;;4989608;28;20228;-75
2023/03/02 07:32:33;;;;;;;14.33;8.97;;;2.40;1.00;;;;;;4987226;28;20253;-75
2023/03/02 07:35:00;;;;;;;41.97;22.43;;;2.40;1.00;;;;;;4985188;28;20225;-75
2023/03/02 07:37:27;;;;;;;10.80;6.67;;;2.30;1.00;;;;;;4972714;28;20202;-75
2023/03/02 07:39:54;;;;;;;9.43;6.53;;;2.30;1.00;;;;;;4979934;28;20641;-75
2023/03/02 07:42:21;;;;;;;10.20;7.10;;;2.30;1.00;;;;;;4996063;28;20929;-75
2023/03/02 07:44:53;;;;;;;13.17;7.17;;;2.40;1.00;;;;;;4998308;28;20256;-75
2023/03/02 07:47:20;;;;;;;8.30;6.30;;;2.40;1.00;;;;;;4990395;28;20205;-75
2023/03/02 07:49:47;;;;;;;11.00;7.20;;;2.50;1.00;;;;;;4988224;28;20574;-75
2023/03/02 07:52:14;;;;;;;10.97;7.03;;;2.50;1.00;;;;;;4987643;28;20898;-75
2023/03/02 07:54:41;;;;;;;9.80;6.47;;;2.60;1.00;;;;;;4990061;28;20186;-75
2023/03/02 07:57:08;;;;;;;8.07;5.87;;;2.60;1.00;;;;;;4989357;28;20704;-75
2023/03/02 07:59:35;;;;;;;11.67;6.53;;;2.70;1.00;;;;;;4989434;28;20597;-75
2023/03/02 08:02:02;;;;;;;13.37;6.53;;;2.80;1.00;;;;;;4990083;28;20254;-75
2023/03/02 08:04:29;;;;;;;10.40;6.40;;;2.80;1.00;;;;;;5004484;28;20245;-75
2023/03/02 08:06:56;;;;;;;15.17;8.70;;;2.90;1.00;;;;;;4987356;28;20204;-74
2023/03/02 08:09:23;;;;;;;10.17;5.93;;;2.90;1.00;;;;;;4988635;28;20530;-75
2023/03/02 08:11:50;;;;;;;9.97;6.70;;;2.90;1.00;;;;;;4972553;28;20559;-75
2023/03/02 08:14:17;;;;;;;12.03;7.63;;;2.90;1.00;;;;;;4990425;28;20272;-75
2023/03/02 08:16:44;;;;;;;13.20;8.10;;;3.00;1.00;;;;;;4986607;28;20284;-74
2023/03/02 08:19:11;;;;;;;10.67;6.40;;;3.10;1.00;;;;;;4986659;28;20185;-75
2023/03/02 08:21:38;;;;;;;12.23;6.50;;;3.20;1.00;;;;;;4981303;28;20232;-74
2023/03/02 08:24:06;;;;;;;10.17;6.00;;;3.20;1.00;;;;;;4970882;28;20205;-74
2023/03/02 08:26:33;;;;;;;12.73;6.70;;;3.30;1.00;;;;;;4995166;28;20226;-75
2023/03/02 08:29:00;;;;;;;9.53;6.00;;;3.30;1.00;;;;;;4989628;28;20229;-77
2023/03/02 08:31:27;;;;;;;15.63;7.93;;;3.40;1.00;;;;;;4986759;28;20797;-74
2023/03/02 08:33:54;;;;;;;17.67;7.70;;;3.40;1.00;;;;;;4986758;28;20272;-74
2023/03/02 08:36:21;;;;;;;24.43;11.50;;;3.50;1.00;;;;;;4986335;28;20213;-74
2023/03/02 08:38:49;;;;;;;12.20;6.60;;;3.50;1.00;;;;;;4980051;28;20278;-74
2023/03/02 08:41:19;;;;;;;11.93;7.57;;;3.60;1.00;;;;;;4987528;28;20205;-74
2023/03/02 08:43:47;;;;;;;8.63;6.07;;;3.70;1.00;;;;;;4986061;28;20210;-74
2023/03/02 08:46:16;;;;;;;9.80;6.30;;;3.80;1.00;;;;;;4985498;28;20197;-75
2023/03/02 08:48:44;;;;;;;14.53;8.70;;;3.90;1.00;;;;;;4997655;28;20686;-75
2023/03/02 08:51:18;;;;;;;7.93;6.37;;;4.00;1.00;;;;;;4988618;28;20753;-75
2023/03/02 08:53:49;;;;;;;10.20;6.60;;;4.00;1.00;;;;;;4987361;28;20197;-75
2023/03/02 08:56:22;;;;;;;10.00;6.50;;;4.00;1.00;;;;;;4996910;28;20201;-75
2023/03/02 08:58:51;;;;;;;10.10;6.47;;;4.00;1.00;;;;;;4988206;28;20291;-75
2023/03/02 09:01:24;;;;;;;10.57;6.17;;;4.20;1.00;;;;;;4995581;28;20288;-75
2023/03/02 09:03:51;;;;;;;9.73;6.50;;;4.40;1.00;;;;;;4986037;28;20324;-75
2023/03/02 09:06:18;;;;;;;9.70;6.80;;;4.40;1.00;;;;;;4985981;28;20193;-75
2023/03/02 09:08:46;;;;;;;11.27;7.00;;;4.60;1.00;;;;;;4987494;28;20718;-75
2023/03/02 09:11:13;;;;;;;8.40;5.63;;;5.00;1.00;;;;;;4987481;28;20862;-75
2023/03/02 09:13:40;;;;;;;9.67;6.03;;;9.60;1.00;;;;;;4988421;28;20736;-76
2023/03/02 09:16:08;;;;;;;8.80;5.17;;;14.40;1.00;;;;;;4989056;28;20256;-76
2023/03/02 09:18:35;;;;;;;7.97;5.40;;;15.40;1.00;;;;;;4987573;28;20227;-75
2023/03/02 09:21:03;;;;;;;7.40;4.77;;;15.60;1.00;;;;;;4987869;28;20275;-75
2023/03/02 09:23:31;;;;;;;6.60;4.80;;;15.90;1.00;;;;;;4982831;28;20242;-75
2023/03/02 09:25:58;;;;;;;6.90;4.90;;;16.00;1.00;;;;;;4971251;28;20201;-76
2023/03/02 09:28:25;;;;;;;7.80;5.45;;;16.20;1.00;;;;;;4987618;28;20236;-80
2023/03/02 09:30:56;;;;;;;10.15;5.82;;;17.60;1.00;;;;;;4988671;28;20224;-78
2023/03/02 09:33:23;;;;;;;8.95;5.28;;;18.30;1.00;;;;;;4975487;28;20220;-78
2023/03/02 09:35:50;;;;;;;5.80;4.70;;;17.10;1.00;;;;;;4989115;28;20261;-77
2023/03/02 09:38:18;;;;;;;8.45;5.18;;;16.70;1.00;;;;;;4971077;28;20244;-77
2023/03/02 09:41:11;;;;;;;6.18;5.05;;;15.40;1.00;;;;;;4987604;28;20202;-77
2023/03/02 09:43:43;;;;;;;7.45;5.25;;;15.70;1.00;;;;;;4976791;28;20217;-77
2023/03/02 09:46:34;;;;;;;7.65;5.20;;;16.10;1.00;;;;;;4999853;28;20181;-76
2023/03/02 09:49:24;;;;;;;8.52;4.93;;;16.90;1.00;;;;;;4969946;28;20202;-76
2023/03/02 09:52:13;;;;;;;7.90;5.68;;;17.30;1.00;;;;;;4985546;28;20264;-76
2023/03/02 09:54:40;;;;;;;6.82;5.07;;;15.90;1.00;;;;;;4985112;28;20221;-75
2023/03/02 09:57:22;;;;;;;8.88;5.85;;;15.40;1.00;;;;;;4983223;28;20591;-78
2023/03/02 10:00:03;;;;;;;11.60;7.80;;;17.90;1.00;;;;;;4984393;28;20225;-78
2023/03/02 10:02:55;;;;;;;10.88;5.22;;;19.60;1.00;;;;;;4986308;28;20255;-76
2023/03/02 10:05:44;;;;;;;9.20;5.50;;;19.30;1.00;;;;;;4985886;28;20264;-76
2023/03/02 10:08:21;;;;;;;9.43;5.93;;;19.00;1.00;;;;;;4987035;28;20316;-76
2023/03/02 10:11:16;;;;;;;7.22;5.00;;;18.80;1.00;;;;;;4988130;28;20284;-77
2023/03/02 10:13:48;;;;;;;6.93;5.35;;;19.60;1.00;;;;;;4981912;28;20232;-76
2023/03/02 10:16:50;;;;;;;8.45;5.40;;;18.30;1.00;;;;;;4980430;28;20276;-78
2023/03/02 10:19:17;;;;;;;8.95;4.97;;;18.70;1.00;;;;;;4977878;28;20209;-78
2023/03/02 10:21:57;;;;;;;9.20;5.15;;;17.80;1.00;;;;;;4983426;28;20209;-80
2023/03/02 10:24:48;;;;;;;6.93;4.70;;;18.20;1.00;;;;;;4984822;28;20732;-76
2023/03/02 10:27:31;;;;;;;9.20;5.38;;;19.70;1.00;;;;;;4982023;28;20212;-76
2023/03/02 10:30:20;;;;;;;6.75;5.28;;;21.10;1.00;;;;;;4974026;28;20214;-76
2023/03/02 10:32:49;;;;;;;7.80;5.80;;;21.50;1.00;;;;;;4985351;28;20212;-76
2023/03/02 10:35:22;;;;;;;9.63;6.70;;;19.90;1.00;;;;;;4993402;28;20244;-76
2023/03/02 10:38:11;;;;;;;11.95;6.95;;;19.60;1.00;;;;;;4972365;28;20678;-77
2023/03/02 10:40:41;;;;;;;10.30;6.13;;;18.80;1.00;;;;;;4996989;28;20248;-77
2023/03/02 10:43:30;;;;;;;6.50;4.88;;;18.50;1.00;;;;;;4991527;28;20202;-76
2023/03/02 10:46:08;;;;;;;5.70;4.60;;;18.60;1.00;;;;;;4991629;28;20648;-76
2023/03/02 10:48:53;;;;;;;6.30;4.70;;;19.10;1.00;;;;;;4998377;28;20328;-76
2023/03/02 10:51:41;;;;;;;5.32;4.50;;;20.00;1.00;;;;;;4988457;28;20201;-76
2023/03/02 10:54:13;;;;;;;6.22;4.38;;;19.60;1.00;;;;;;4992265;28;20193;-76
2023/03/02 10:56:50;;;;;;;5.90;4.35;;;18.40;1.00;;;;;;4986204;28;20577;-77
2023/03/02 10:59:49;;;;;;;6.00;4.65;;;19.40;1.00;;;;;;5002130;28;20261;-76
2023/03/02 11:02:16;;;;;;;7.85;4.85;;;19.60;1.00;;;;;;4994002;28;20557;-75
2023/03/02 11:04:44;;;;;;;6.05;4.55;;;18.70;1.00;;;;;;4994337;28;20253;-78
2023/03/02 11:07:17;;;;;;;6.32;4.32;;;18.40;1.00;;;;;;4991470;28;20204;-76
2023/03/02 11:10:04;;;;;;;5.30;4.03;;;19.70;1.00;;;;;;4987380;28;20300;-75
2023/03/02 11:12:35;;;;;;;6.07;4.50;;;19.20;1.00;;;;;;4995467;28;20220;-77
2023/03/02 11:15:15;;;;;;;7.75;4.50;;;18.60;1.00;;;;;;4986462;28;20252;-76
2023/03/02 11:17:45;;;;;;;5.63;4.50;;;19.60;1.00;;;;;;4992320;28;20212;-76
2023/03/02 11:20:27;;;;;;;5.88;4.60;;;19.30;1.00;;;;;;4992166;28;20599;-76
2023/03/02 11:23:12;;;;;;;6.03;4.07;;;16.50;1.00;;;;;;4986231;28;20197;-78
2023/03/02 11:25:44;;;;;;;5.38;4.47;;;16.30;1.00;;;;;;4995100;28;20198;-76
2023/03/02 11:28:31;;;;;;;6.68;4.35;;;16.10;1.00;;;;;;4994205;28;20197;-76
2023/03/02 11:31:01;;;;;;;6.57;4.43;;;16.20;1.00;;;;;;4993327;28;20206;-76
2023/03/02 11:33:53;;;;;;;5.80;4.22;;;16.40;1.00;;;;;;4990437;28;20218;-77
2023/03/02 11:36:34;;;;;;;5.13;3.92;;;17.10;1.00;;;;;;4994163;28;20201;-75
2023/03/02 11:39:08;;;;;;;8.00;4.25;;;16.40;1.00;;;;;;4993106;28;20193;-75
2023/03/02 11:41:35;;;;;;;8.13;3.92;;;15.30;1.00;;;;;;4995412;28;20193;-76
2023/03/02 11:44:16;;;;;;;7.68;4.47;;;15.80;1.00;;;;;;4992982;28;20741;-75
2023/03/02 11:46:47;;;;;;;5.43;4.30;;;15.20;1.00;;;;;;4993278;28;20197;-76
2023/03/02 11:49:25;;;;;;;8.57;4.35;;;16.30;1.00;;;;;;5009076;28;20795;-76
2023/03/02 11:51:59;;;;;;;6.75;5.03;;;14.80;1.00;;;;;;4984550;28;20235;-82
2023/03/02 11:54:43;;;;;;;6.00;4.45;;;14.20;1.00;;;;;;5001311;28;20272;-78
2023/03/02 11:57:30;;;;;;;6.97;4.40;;;14.00;1.00;;;;;;4992874;28;20248;-76
2023/03/02 11:59:58;;;;;;;6.47;4.50;;;14.70;1.00;;;;;;4985583;28;20197;-76
2023/03/02 12:02:26;;;;;;;8.90;4.35;;;14.60;1.00;;;;;;4991097;28;20198;-76
2023/03/02 12:05:07;;;;;;;6.03;4.45;;;14.70;1.00;;;;;;4994493;28;20240;-78
2023/03/02 12:07:34;;;;;;;5.20;4.05;;;14.80;1.00;;;;;;4985133;28;20208;-76
2023/03/02 12:10:21;;;;;;;4.97;4.03;;;14.70;1.00;;;;;;4993278;28;20579;-77
2023/03/02 12:13:19;;;;;;;6.15;4.40;;;13.90;1.00;;;;;;4986740;28;20224;-79
2023/03/02 12:15:50;;;;;;;5.43;4.00;;;14.20;1.00;;;;;;4994530;28;20194;-77
2023/03/02 12:18:20;;;;;;;6.72;4.53;;;14.20;1.00;;;;;;4992443;28;20279;-78
2023/03/02 12:21:08;;;;;;;5.47;4.50;;;13.80;1.00;;;;;;4986683;28;20185;-78
2023/03/02 12:23:52;;;;;;;5.38;4.75;;;13.50;1.00;;;;;;4989902;28;20764;-76
2023/03/02 12:26:19;;;;;;;8.35;4.97;;;13.30;1.00;;;;;;4992363;28;20271;-76
2023/03/02 12:29:05;;;;;;;5.95;4.47;;;13.00;1.00;;;;;;4972315;28;20689;-81
2023/03/02 12:31:53;;;;;;;5.90;4.28;;;13.40;1.00;;;;;;4988723;28;20267;-78
2023/03/02 12:34:23;;;;;;;7.85;4.55;;;13.30;1.00;;;;;;4987163;28;20301;-77
2023/03/02 12:36:58;;;;;;;6.38;4.78;;;13.80;1.00;;;;;;4990131;28;20241;-80
2023/03/02 12:39:53;;;;;;;8.02;4.75;;;13.50;1.00;;;;;;4989026;28;20252;-78
2023/03/02 12:42:36;;;;;;;7.88;4.85;;;13.60;1.00;;;;;;4988870;28;20699;-79
2023/03/02 12:45:37;;;;;;;6.80;4.40;;;13.20;1.00;;;;;;5000757;28;20622;-76
2023/03/02 12:48:22;;;;;;;5.53;4.30;;;12.90;1.00;;;;;;5003131;28;20284;-78
2023/03/02 12:50:51;;;;;;;8.02;5.10;;;13.30;1.00;;;;;;4975497;28;20300;-80
2023/03/02 12:53:19;;;;;;;7.00;4.38;;;13.30;1.00;;;;;;4988246;28;20264;-76
2023/03/02 12:55:46;;;;;;;6.57;4.50;;;13.00;1.00;;;;;;4988112;28;20396;-75
2023/03/02 12:58:19;;;;;;;8.80;5.23;;;12.90;1.00;;;;;;4989006;28;20186;-76
2023/03/02 13:01:00;;;;;;;8.53;4.67;;;12.80;1.00;;;;;;4989944;28;20284;-76
2023/03/02 13:03:30;;;;;;;7.77;5.27;;;12.40;1.00;;;;;;4988424;28;20248;-74
2023/03/02 13:06:21;;;;;;;7.70;5.63;;;11.90;1.00;;;;;;4986355;28;20201;-76
2023/03/02 13:08:52;;;;;;;6.37;4.80;;;11.90;1.00;;;;;;4981886;28;20260;-76
2023/03/02 13:11:31;;;;;;;9.87;5.73;;;11.40;1.00;;;;;;4988362;28;20198;-76
2023/03/02 13:13:59;;;;;;;8.90;5.20;;;11.70;1.00;;;;;;4986071;28;20217;-77
2023/03/02 13:16:31;;;;;;;7.83;6.00;;;11.40;1.00;;;;;;5001303;28;20539;-76
2023/03/02 13:19:02;;;;;;;8.17;5.77;;;11.30;1.00;;;;;;4969680;28;20224;-77